sensor_id;sensor_type;location;lat;lon;timestamp;pressure;altitude;pressure_sealevel;temperature;humidity
56713;BME280;42589;45.536;9.032;2023-01-25T00:01:04;100890.22;;;14.75;43.17
56713;BME280;42589;45.536;9.032;2023-01-25T00:04:05;100897.38;;;14.93;43.18
56713;BME280;42589;45.536;9.032;2023-01-25T00:07:07;100849.19;;;14.93;42.70
56713;BME280;42589;45.536;9.032;2023-01-25T00:10:09;100886.34;;;15.14;42.15
56713;BME280;42589;45.536;9.032;2023-01-25T00:13:12;100879.13;;;15.32;42.27
56713;BME280;42589;45.536;9.032;2023-01-25T00:16:14;100890.88;;;15.39;42.19
56713;BME280;42589;45.536;9.032;2023-01-25T00:19:15;100871.22;;;14.86;42.71
56713;BME280;42589;45.536;9.032;2023-01-25T00:22:16;100880.09;;;14.87;43.43
56713;BME280;42589;45.536;9.032;2023-01-25T00:25:16;100855.63;;;14.82;42.41
56713;BME280;42589;45.536;9.032;2023-01-25T00:28:18;100880.25;;;14.85;43.24
56713;BME280;42589;45.536;9.032;2023-01-25T00:34:45;100883.53;;;14.79;44.14
56713;BME280;42589;45.536;9.032;2023-01-25T00:37:51;100867.41;;;14.53;44.08
56713;BME280;42589;45.536;9.032;2023-01-25T00:40:53;100865.19;;;14.84;43.97
56713;BME280;42589;45.536;9.032;2023-01-25T00:43:54;100858.63;;;14.79;43.71
56713;BME280;42589;45.536;9.032;2023-01-25T00:46:55;100854.00;;;14.89;43.57
56713;BME280;42589;45.536;9.032;2023-01-25T00:49:56;100863.50;;;14.83;43.42
56713;BME280;42589;45.536;9.032;2023-01-25T00:52:57;100851.19;;;14.91;44.35
56713;BME280;42589;45.536;9.032;2023-01-25T00:55:59;100863.78;;;15.16;43.37
56713;BME280;42589;45.536;9.032;2023-01-25T00:59:00;100874.31;;;15.18;43.85
56713;BME280;42589;45.536;9.032;2023-01-25T01:02:01;100875.66;;;14.96;43.70
56713;BME280;42589;45.536;9.032;2023-01-25T01:05:02;100880.56;;;14.82;45.01
56713;BME280;42589;45.536;9.032;2023-01-25T01:08:04;100875.13;;;14.74;44.65
56713;BME280;42589;45.536;9.032;2023-01-25T01:11:08;100863.81;;;14.98;43.95
56713;BME280;42589;45.536;9.032;2023-01-25T01:14:10;100850.03;;;14.93;44.43
56713;BME280;42589;45.536;9.032;2023-01-25T01:17:11;100863.94;;;14.43;45.05
56713;BME280;42589;45.536;9.032;2023-01-25T01:20:12;100861.44;;;14.95;44.50
56713;BME280;42589;45.536;9.032;2023-01-25T01:23:14;100865.81;;;14.60;45.80
56713;BME280;42589;45.536;9.032;2023-01-25T01:26:17;100871.47;;;14.57;45.59
56713;BME280;42589;45.536;9.032;2023-01-25T01:29:18;100912.28;;;15.13;44.96
56713;BME280;42589;45.536;9.032;2023-01-25T01:32:19;100898.63;;;14.35;46.09
56713;BME280;42589;45.536;9.032;2023-01-25T01:35:20;100895.63;;;14.38;46.76
56713;BME280;42589;45.536;9.032;2023-01-25T01:38:21;100908.53;;;14.70;44.58
56713;BME280;42589;45.536;9.032;2023-01-25T01:41:22;100907.09;;;14.94;45.31
56713;BME280;42589;45.536;9.032;2023-01-25T01:47:46;100911.69;;;14.66;45.17
56713;BME280;42589;45.536;9.032;2023-01-25T01:50:51;100904.72;;;14.73;45.66
56713;BME280;42589;45.536;9.032;2023-01-25T02:00:24;100888.31;;;15.29;44.42
56713;BME280;42589;45.536;9.032;2023-01-25T02:03:26;100888.03;;;15.41;44.02
56713;BME280;42589;45.536;9.032;2023-01-25T02:06:33;100876.00;;;15.19;44.68
56713;BME280;42589;45.536;9.032;2023-01-25T02:09:37;100868.19;;;15.51;44.13
56713;BME280;42589;45.536;9.032;2023-01-25T02:12:38;100868.19;;;15.51;43.04
56713;BME280;42589;45.536;9.032;2023-01-25T02:15:45;100881.28;;;15.54;42.94
56713;BME280;42589;45.536;9.032;2023-01-25T02:18:47;100888.56;;;15.18;44.31
56713;BME280;42589;45.536;9.032;2023-01-25T02:21:50;100891.47;;;15.51;43.95
56713;BME280;42589;45.536;9.032;2023-01-25T02:25:07;100891.94;;;15.46;44.03
56713;BME280;42589;45.536;9.032;2023-01-25T02:28:19;100895.13;;;15.50;44.80
56713;BME280;42589;45.536;9.032;2023-01-25T02:31:21;100882.88;;;15.47;43.28
56713;BME280;42589;45.536;9.032;2023-01-25T02:34:23;100895.34;;;15.30;44.00
56713;BME280;42589;45.536;9.032;2023-01-25T02:37:24;100893.09;;;15.44;43.85
56713;BME280;42589;45.536;9.032;2023-01-25T02:40:25;100865.56;;;15.33;43.63
56713;BME280;42589;45.536;9.032;2023-01-25T02:43:28;100899.44;;;15.43;43.48
56713;BME280;42589;45.536;9.032;2023-01-25T02:46:33;100883.31;;;15.35;43.64
56713;BME280;42589;45.536;9.032;2023-01-25T02:49:35;100895.94;;;15.42;44.95
56713;BME280;42589;45.536;9.032;2023-01-25T02:52:37;100887.00;;;15.33;44.88
56713;BME280;42589;45.536;9.032;2023-01-25T02:55:38;100891.91;;;15.38;44.91
56713;BME280;42589;45.536;9.032;2023-01-25T02:58:38;100885.97;;;15.35;45.43
56713;BME280;42589;45.536;9.032;2023-01-25T03:01:41;100885.84;;;15.36;45.26
56713;BME280;42589;45.536;9.032;2023-01-25T03:04:42;100891.56;;;15.41;44.06
56713;BME280;42589;45.536;9.032;2023-01-25T03:07:43;100890.69;;;15.15;45.07
56713;BME280;42589;45.536;9.032;2023-01-25T03:10:44;100876.31;;;15.16;45.47
56713;BME280;42589;45.536;9.032;2023-01-25T03:13:44;100860.09;;;15.43;45.05
56713;BME280;42589;45.536;9.032;2023-01-25T03:16:45;100884.72;;;15.21;45.47
56713;BME280;42589;45.536;9.032;2023-01-25T03:19:46;100890.50;;;15.34;45.37
56713;BME280;42589;45.536;9.032;2023-01-25T03:22:48;100887.75;;;14.64;47.81
56713;BME280;42589;45.536;9.032;2023-01-25T03:25:49;100878.81;;;14.91;45.55
56713;BME280;42589;45.536;9.032;2023-01-25T03:28:49;100883.16;;;15.10;45.44
56713;BME280;42589;45.536;9.032;2023-01-25T03:31:50;100896.34;;;15.29;45.02
56713;BME280;42589;45.536;9.032;2023-01-25T03:34:51;100891.41;;;15.17;45.47
56713;BME280;42589;45.536;9.032;2023-01-25T03:37:52;100876.94;;;15.09;46.48
56713;BME280;42589;45.536;9.032;2023-01-25T03:40:54;100874.53;;;15.24;44.88
56713;BME280;42589;45.536;9.032;2023-01-25T03:43:55;100887.19;;;15.40;45.73
56713;BME280;42589;45.536;9.032;2023-01-25T03:46:55;100879.56;;;15.01;45.70
56713;BME280;42589;45.536;9.032;2023-01-25T03:49:56;100869.22;;;15.06;45.92
56713;BME280;42589;45.536;9.032;2023-01-25T03:53:23;100860.41;;;15.14;46.04
56713;BME280;42589;45.536;9.032;2023-01-25T03:56:28;100868.88;;;15.27;44.54
56713;BME280;42589;45.536;9.032;2023-01-25T03:59:30;100842.19;;;15.18;44.51
56713;BME280;42589;45.536;9.032;2023-01-25T04:02:32;100826.63;;;15.21;45.27
56713;BME280;42589;45.536;9.032;2023-01-25T04:05:33;100847.22;;;14.95;46.18
56713;BME280;42589;45.536;9.032;2023-01-25T04:08:34;100848.13;;;14.50;46.73
56713;BME280;42589;45.536;9.032;2023-01-25T04:11:35;100838.31;;;13.95;48.34
56713;BME280;42589;45.536;9.032;2023-01-25T04:14:36;100838.03;;;14.61;46.11
56713;BME280;42589;45.536;9.032;2023-01-25T04:17:37;100826.56;;;14.87;46.40
56713;BME280;42589;45.536;9.032;2023-01-25T04:20:38;100814.44;;;14.57;46.56
56713;BME280;42589;45.536;9.032;2023-01-25T04:23:39;100827.56;;;14.68;46.22
56713;BME280;42589;45.536;9.032;2023-01-25T04:26:40;100841.47;;;14.90;45.66
56713;BME280;42589;45.536;9.032;2023-01-25T04:29:40;100835.97;;;14.73;46.20
56713;BME280;42589;45.536;9.032;2023-01-25T04:32:41;100839.97;;;14.51;47.02
56713;BME280;42589;45.536;9.032;2023-01-25T04:35:43;100831.84;;;14.61;46.61
56713;BME280;42589;45.536;9.032;2023-01-25T04:38:44;100833.63;;;14.70;47.03
56713;BME280;42589;45.536;9.032;2023-01-25T04:41:44;100829.25;;;14.69;46.87
56713;BME280;42589;45.536;9.032;2023-01-25T04:44:46;100826.50;;;14.61;46.54
56713;BME280;42589;45.536;9.032;2023-01-25T04:47:48;100800.13;;;13.85;48.26
56713;BME280;42589;45.536;9.032;2023-01-25T04:50:48;100781.75;;;13.44;49.17
56713;BME280;42589;45.536;9.032;2023-01-25T04:53:49;100778.59;;;13.12;50.43
56713;BME280;42589;45.536;9.032;2023-01-25T04:56:50;100789.75;;;13.44;49.63
56713;BME280;42589;45.536;9.032;2023-01-25T04:59:51;100795.28;;;14.16;47.60
56713;BME280;42589;45.536;9.032;2023-01-25T05:02:52;100773.25;;;13.12;50.37
56713;BME280;42589;45.536;9.032;2023-01-25T05:05:53;100779.66;;;12.52;52.00
56713;BME280;42589;45.536;9.032;2023-01-25T05:08:55;100793.69;;;12.74;51.99
56713;BME280;42589;45.536;9.032;2023-01-25T05:11:55;100786.69;;;12.73;51.62
56713;BME280;42589;45.536;9.032;2023-01-25T05:14:56;100791.53;;;13.16;49.54
56713;BME280;42589;45.536;9.032;2023-01-25T05:17:57;100800.44;;;13.54;49.06
56713;BME280;42589;45.536;9.032;2023-01-25T05:20:58;100805.81;;;13.72;48.53
56713;BME280;42589;45.536;9.032;2023-01-25T05:23:59;100788.38;;;13.40;49.09
56713;BME280;42589;45.536;9.032;2023-01-25T05:27:01;100805.31;;;13.59;48.85
56713;BME280;42589;45.536;9.032;2023-01-25T05:30:05;100816.88;;;13.50;48.48
56713;BME280;42589;45.536;9.032;2023-01-25T05:33:06;100805.78;;;13.54;48.24
56713;BME280;42589;45.536;9.032;2023-01-25T05:36:07;100820.28;;;13.42;48.73
56713;BME280;42589;45.536;9.032;2023-01-25T05:39:08;100809.78;;;13.68;47.36
56713;BME280;42589;45.536;9.032;2023-01-25T05:42:10;100813.63;;;13.83;47.68
56713;BME280;42589;45.536;9.032;2023-01-25T05:45:12;100830.50;;;13.84;47.24
56713;BME280;42589;45.536;9.032;2023-01-25T05:48:12;100816.84;;;14.14;46.53
56713;BME280;42589;45.536;9.032;2023-01-25T05:51:13;100816.94;;;14.40;45.70
56713;BME280;42589;45.536;9.032;2023-01-25T05:54:16;100815.06;;;14.23;46.46
56713;BME280;42589;45.536;9.032;2023-01-25T05:57:16;100830.72;;;14.63;46.16
56713;BME280;42589;45.536;9.032;2023-01-25T06:00:18;100828.75;;;14.20;45.74
56713;BME280;42589;45.536;9.032;2023-01-25T06:03:19;100832.38;;;14.65;45.09
56713;BME280;42589;45.536;9.032;2023-01-25T06:06:21;100821.25;;;14.69;45.35
56713;BME280;42589;45.536;9.032;2023-01-25T06:09:22;100813.34;;;14.85;44.78
56713;BME280;42589;45.536;9.032;2023-01-25T06:12:23;100805.47;;;14.48;45.94
56713;BME280;42589;45.536;9.032;2023-01-25T06:15:25;100806.81;;;13.99;46.82
56713;BME280;42589;45.536;9.032;2023-01-25T06:18:28;100806.00;;;14.52;45.67
56713;BME280;42589;45.536;9.032;2023-01-25T06:21:29;100788.25;;;14.33;45.55
56713;BME280;42589;45.536;9.032;2023-01-25T06:24:30;100809.13;;;14.65;45.54
56713;BME280;42589;45.536;9.032;2023-01-25T06:27:31;100787.72;;;14.29;46.00
56713;BME280;42589;45.536;9.032;2023-01-25T06:30:32;100776.63;;;14.42;46.14
56713;BME280;42589;45.536;9.032;2023-01-25T06:33:34;100788.94;;;14.17;46.77
56713;BME280;42589;45.536;9.032;2023-01-25T06:36:35;100792.63;;;14.16;45.37
56713;BME280;42589;45.536;9.032;2023-01-25T06:39:36;100781.53;;;14.29;45.60
56713;BME280;42589;45.536;9.032;2023-01-25T06:42:41;100769.41;;;14.34;46.27
56713;BME280;42589;45.536;9.032;2023-01-25T06:45:41;100787.81;;;14.55;45.56
56713;BME280;42589;45.536;9.032;2023-01-25T06:48:42;100772.81;;;14.27;46.39
56713;BME280;42589;45.536;9.032;2023-01-25T06:51:42;100773.72;;;14.00;47.25
56713;BME280;42589;45.536;9.032;2023-01-25T06:54:43;100768.69;;;13.69;47.24
56713;BME280;42589;45.536;9.032;2023-01-25T06:57:44;100763.50;;;14.13;45.90
56713;BME280;42589;45.536;9.032;2023-01-25T07:00:46;100770.00;;;14.28;46.55
56713;BME280;42589;45.536;9.032;2023-01-25T07:03:48;100758.84;;;14.15;45.86
56713;BME280;42589;45.536;9.032;2023-01-25T07:06:49;100765.81;;;14.44;45.03
56713;BME280;42589;45.536;9.032;2023-01-25T07:09:50;100766.72;;;14.52;45.35
56713;BME280;42589;45.536;9.032;2023-01-25T07:12:51;100762.91;;;14.37;45.48
56713;BME280;42589;45.536;9.032;2023-01-25T07:15:57;100759.53;;;14.17;46.31
56713;BME280;42589;45.536;9.032;2023-01-25T07:18:58;100754.97;;;14.27;46.25
56713;BME280;42589;45.536;9.032;2023-01-25T07:22:01;100745.06;;;14.46;45.09
56713;BME280;42589;45.536;9.032;2023-01-25T07:25:04;100749.22;;;14.40;45.48
56713;BME280;42589;45.536;9.032;2023-01-25T07:28:05;100739.72;;;13.92;46.12
56713;BME280;42589;45.536;9.032;2023-01-25T07:31:07;100754.09;;;14.27;45.64
56713;BME280;42589;45.536;9.032;2023-01-25T07:34:10;100744.56;;;14.06;47.00
56713;BME280;42589;45.536;9.032;2023-01-25T07:37:12;100754.09;;;14.45;45.39
56713;BME280;42589;45.536;9.032;2023-01-25T07:40:14;100737.97;;;14.36;44.90
56713;BME280;42589;45.536;9.032;2023-01-25T07:43:34;100747.59;;;14.65;44.84
56713;BME280;42589;45.536;9.032;2023-01-25T07:46:35;100736.28;;;14.35;45.45
56713;BME280;42589;45.536;9.032;2023-01-25T07:49:36;100739.97;;;13.53;47.76
56713;BME280;42589;45.536;9.032;2023-01-25T07:52:37;100724.22;;;13.50;47.94
56713;BME280;42589;45.536;9.032;2023-01-25T07:55:38;100721.41;;;13.52;48.19
56713;BME280;42589;45.536;9.032;2023-01-25T07:58:39;100712.31;;;14.08;46.69
56713;BME280;42589;45.536;9.032;2023-01-25T08:01:41;100719.13;;;14.02;45.86
56713;BME280;42589;45.536;9.032;2023-01-25T08:04:42;100730.13;;;14.53;45.55
56713;BME280;42589;45.536;9.032;2023-01-25T08:07:45;100738.72;;;14.65;44.70
56713;BME280;42589;45.536;9.032;2023-01-25T08:10:47;100728.94;;;14.73;45.44
56713;BME280;42589;45.536;9.032;2023-01-25T08:13:48;100744.38;;;14.61;44.56
56713;BME280;42589;45.536;9.032;2023-01-25T08:16:49;100726.56;;;14.70;46.01
56713;BME280;42589;45.536;9.032;2023-01-25T08:19:51;100736.53;;;14.60;45.07
56713;BME280;42589;45.536;9.032;2023-01-25T08:22:52;100733.50;;;14.81;44.33
56713;BME280;42589;45.536;9.032;2023-01-25T08:25:53;100725.56;;;14.71;44.10
56713;BME280;42589;45.536;9.032;2023-01-25T08:28:55;100741.16;;;14.76;44.33
56713;BME280;42589;45.536;9.032;2023-01-25T08:31:56;100723.69;;;14.90;44.02
56713;BME280;42589;45.536;9.032;2023-01-25T08:34:57;100741.16;;;15.02;44.50
56713;BME280;42589;45.536;9.032;2023-01-25T08:37:57;100726.66;;;15.13;44.27
56713;BME280;42589;45.536;9.032;2023-01-25T08:41:05;100737.50;;;15.37;44.41
56713;BME280;42589;45.536;9.032;2023-01-25T08:44:06;100719.84;;;14.66;43.89
56713;BME280;42589;45.536;9.032;2023-01-25T08:47:07;100732.09;;;14.95;44.78
56713;BME280;42589;45.536;9.032;2023-01-25T08:50:09;100720.75;;;15.35;43.98
56713;BME280;42589;45.536;9.032;2023-01-25T08:53:10;100731.94;;;15.30;44.57
56713;BME280;42589;45.536;9.032;2023-01-25T08:56:12;100730.13;;;14.35;45.75
56713;BME280;42589;45.536;9.032;2023-01-25T08:59:13;100723.47;;;14.83;44.76
56713;BME280;42589;45.536;9.032;2023-01-25T09:02:14;100725.81;;;13.88;47.00
56713;BME280;42589;45.536;9.032;2023-01-25T09:05:16;100707.19;;;14.32;45.49
56713;BME280;42589;45.536;9.032;2023-01-25T09:08:17;100687.81;;;14.12;45.42
56713;BME280;42589;45.536;9.032;2023-01-25T09:11:20;100709.94;;;14.84;44.18
56713;BME280;42589;45.536;9.032;2023-01-25T09:14:21;100705.59;;;14.22;45.21
56713;BME280;42589;45.536;9.032;2023-01-25T09:17:24;100699.06;;;14.86;44.46
56713;BME280;42589;45.536;9.032;2023-01-25T09:20:24;100712.97;;;14.46;45.09
56713;BME280;42589;45.536;9.032;2023-01-25T09:23:25;100695.81;;;15.00;43.69
56713;BME280;42589;45.536;9.032;2023-01-25T09:26:26;100698.44;;;15.26;43.61
56713;BME280;42589;45.536;9.032;2023-01-25T09:29:28;100679.09;;;15.49;43.11
56713;BME280;42589;45.536;9.032;2023-01-25T09:32:29;100692.22;;;13.86;46.53
56713;BME280;42589;45.536;9.032;2023-01-25T09:35:29;100700.41;;;14.82;44.67
56713;BME280;42589;45.536;9.032;2023-01-25T09:38:30;100681.50;;;14.83;43.78
56713;BME280;42589;45.536;9.032;2023-01-25T09:45:29;100703.97;;;13.75;46.76
56713;BME280;42589;45.536;9.032;2023-01-25T09:48:37;100687.94;;;15.41;43.52
56713;BME280;42589;45.536;9.032;2023-01-25T09:52:07;100695.19;;;15.49;42.99
56713;BME280;42589;45.536;9.032;2023-01-25T09:55:14;100692.22;;;15.18;43.92
56713;BME280;42589;45.536;9.032;2023-01-25T09:58:19;100686.78;;;15.44;43.69
56713;BME280;42589;45.536;9.032;2023-01-25T10:01:40;100692.50;;;16.16;41.77
56713;BME280;42589;45.536;9.032;2023-01-25T10:04:44;100699.47;;;14.47;44.99
56713;BME280;42589;45.536;9.032;2023-01-25T10:08:01;100675.31;;;15.25;43.73
56713;BME280;42589;45.536;9.032;2023-01-25T10:14:22;100672.66;;;15.76;41.56
56713;BME280;42589;45.536;9.032;2023-01-25T10:17:43;100670.38;;;16.22;41.44
56713;BME280;42589;45.536;9.032;2023-01-25T10:21:05;100680.75;;;16.33;41.27
56713;BME280;42589;45.536;9.032;2023-01-25T10:30:29;100659.19;;;15.51;42.72
56713;BME280;42589;45.536;9.032;2023-01-25T10:33:38;100673.00;;;15.30;43.26
56713;BME280;42589;45.536;9.032;2023-01-25T10:36:40;100667.31;;;15.68;42.12
56713;BME280;42589;45.536;9.032;2023-01-25T10:40:03;100677.41;;;16.56;41.47
56713;BME280;42589;45.536;9.032;2023-01-25T10:43:12;100654.56;;;16.52;41.46
56713;BME280;42589;45.536;9.032;2023-01-25T10:46:22;100673.50;;;16.91;40.98
56713;BME280;42589;45.536;9.032;2023-01-25T10:49:39;100666.47;;;16.82;40.89
56713;BME280;42589;45.536;9.032;2023-01-25T10:52:56;100651.53;;;17.27;40.14
56713;BME280;42589;45.536;9.032;2023-01-25T10:59:26;100642.19;;;17.46;39.46
56713;BME280;42589;45.536;9.032;2023-01-25T11:02:35;100649.06;;;17.48;40.23
56713;BME280;42589;45.536;9.032;2023-01-25T11:05:37;100636.66;;;17.70;38.72
56713;BME280;42589;45.536;9.032;2023-01-25T11:08:41;100626.56;;;17.72;39.03
56713;BME280;42589;45.536;9.032;2023-01-25T11:11:42;100619.09;;;16.97;38.73
56713;BME280;42589;45.536;9.032;2023-01-25T11:14:44;100622.69;;;17.44;38.85
56713;BME280;42589;45.536;9.032;2023-01-25T11:18:12;100616.69;;;17.96;37.63
56713;BME280;42589;45.536;9.032;2023-01-25T11:21:20;100594.50;;;17.94;36.97
56713;BME280;42589;45.536;9.032;2023-01-25T11:24:27;100611.41;;;18.17;37.48
56713;BME280;42589;45.536;9.032;2023-01-25T11:27:28;100597.78;;;18.71;35.72
56713;BME280;42589;45.536;9.032;2023-01-25T11:30:28;100599.59;;;18.41;36.54
56713;BME280;42589;45.536;9.032;2023-01-25T11:33:29;100581.03;;;18.61;36.91
56713;BME280;42589;45.536;9.032;2023-01-25T11:46:55;100567.91;;;18.81;36.44
56713;BME280;42589;45.536;9.032;2023-01-25T11:53:02;100570.25;;;18.31;36.45
56713;BME280;42589;45.536;9.032;2023-01-25T11:56:31;100558.56;;;18.98;35.89
56713;BME280;42589;45.536;9.032;2023-01-25T11:59:51;100554.03;;;18.69;35.90
56713;BME280;42589;45.536;9.032;2023-01-25T12:03:02;100539.81;;;18.61;37.51
56713;BME280;42589;45.536;9.032;2023-01-25T12:06:29;100534.97;;;18.26;38.10
56713;BME280;42589;45.536;9.032;2023-01-25T12:13:01;100523.78;;;18.38;36.84
56713;BME280;42589;45.536;9.032;2023-01-25T12:32:42;100479.22;;;18.50;36.38
56713;BME280;42589;45.536;9.032;2023-01-25T12:36:12;100446.47;;;17.87;37.92
56713;BME280;42589;45.536;9.032;2023-01-25T12:39:22;100469.19;;;17.99;38.08
56713;BME280;42589;45.536;9.032;2023-01-25T12:42:31;100458.13;;;18.68;36.44
56713;BME280;42589;45.536;9.032;2023-01-25T12:45:36;100435.78;;;18.38;35.96
56713;BME280;42589;45.536;9.032;2023-01-25T12:48:41;100450.81;;;18.47;36.13
56713;BME280;42589;45.536;9.032;2023-01-25T12:51:46;100449.59;;;18.50;35.93
56713;BME280;42589;45.536;9.032;2023-01-25T12:54:52;100425.19;;;18.51;35.61
56713;BME280;42589;45.536;9.032;2023-01-25T13:01:23;100422.06;;;18.84;35.84
56713;BME280;42589;45.536;9.032;2023-01-25T13:07:37;100423.22;;;18.60;35.78
56713;BME280;42589;45.536;9.032;2023-01-25T13:10:44;100405.94;;;18.18;36.71
56713;BME280;42589;45.536;9.032;2023-01-25T13:13:46;100400.47;;;18.12;36.26
56713;BME280;42589;45.536;9.032;2023-01-25T13:16:48;100401.69;;;17.79;37.49
56713;BME280;42589;45.536;9.032;2023-01-25T13:19:56;100405.28;;;18.01;36.94
56713;BME280;42589;45.536;9.032;2023-01-25T13:22:58;100381.63;;;18.12;36.57
56713;BME280;42589;45.536;9.032;2023-01-25T13:29:44;100393.69;;;18.16;36.80
56713;BME280;42589;45.536;9.032;2023-01-25T13:35:49;100365.59;;;18.03;35.93
56713;BME280;42589;45.536;9.032;2023-01-25T13:38:50;100394.97;;;18.20;36.00
56713;BME280;42589;45.536;9.032;2023-01-25T13:45:16;100383.59;;;18.03;37.21
56713;BME280;42589;45.536;9.032;2023-01-25T13:48:23;100402.41;;;18.03;37.40
56713;BME280;42589;45.536;9.032;2023-01-25T13:51:27;100379.41;;;18.51;36.09
56713;BME280;42589;45.536;9.032;2023-01-25T13:54:30;100380.22;;;18.16;35.58
56713;BME280;42589;45.536;9.032;2023-01-25T13:57:31;100379.47;;;18.58;34.76
56713;BME280;42589;45.536;9.032;2023-01-25T14:00:33;100383.53;;;18.69;34.70
56713;BME280;42589;45.536;9.032;2023-01-25T14:03:43;100378.56;;;19.09;34.66
56713;BME280;42589;45.536;9.032;2023-01-25T14:06:44;100339.06;;;18.94;34.13
56713;BME280;42589;45.536;9.032;2023-01-25T14:09:47;100363.50;;;18.71;34.51
56713;BME280;42589;45.536;9.032;2023-01-25T14:12:48;100356.34;;;19.00;34.19
56713;BME280;42589;45.536;9.032;2023-01-25T14:16:00;100362.31;;;19.23;33.88
56713;BME280;42589;45.536;9.032;2023-01-25T14:19:27;100344.16;;;17.66;36.54
56713;BME280;42589;45.536;9.032;2023-01-25T14:22:31;100328.84;;;19.11;33.46
56713;BME280;42589;45.536;9.032;2023-01-25T14:25:32;100340.31;;;19.48;33.38
56713;BME280;42589;45.536;9.032;2023-01-25T14:28:33;100324.59;;;19.23;33.54
56713;BME280;42589;45.536;9.032;2023-01-25T14:31:35;100353.94;;;19.68;33.39
56713;BME280;42589;45.536;9.032;2023-01-25T14:34:36;100322.16;;;19.63;32.82
56713;BME280;42589;45.536;9.032;2023-01-25T14:37:41;100309.00;;;18.12;34.10
56713;BME280;42589;45.536;9.032;2023-01-25T14:40:41;100349.03;;;18.72;33.98
56713;BME280;42589;45.536;9.032;2023-01-25T14:43:48;100343.91;;;18.41;34.84
56713;BME280;42589;45.536;9.032;2023-01-25T14:50:35;100338.91;;;18.60;34.65
56713;BME280;42589;45.536;9.032;2023-01-25T14:53:39;100330.13;;;18.87;34.24
56713;BME280;42589;45.536;9.032;2023-01-25T14:56:44;100339.41;;;18.85;34.19
56713;BME280;42589;45.536;9.032;2023-01-25T14:59:49;100334.09;;;19.19;33.71
56713;BME280;42589;45.536;9.032;2023-01-25T15:02:55;100325.81;;;19.21;33.40
56713;BME280;42589;45.536;9.032;2023-01-25T15:06:01;100342.06;;;19.34;33.21
56713;BME280;42589;45.536;9.032;2023-01-25T15:09:03;100326.41;;;18.52;33.84
56713;BME280;42589;45.536;9.032;2023-01-25T15:12:21;100335.56;;;18.72;33.69
56713;BME280;42589;45.536;9.032;2023-01-25T15:15:24;100329.63;;;18.84;33.50
56713;BME280;42589;45.536;9.032;2023-01-25T15:21:48;100323.53;;;18.96;33.60
56713;BME280;42589;45.536;9.032;2023-01-25T15:24:49;100325.94;;;18.85;33.72
56713;BME280;42589;45.536;9.032;2023-01-25T15:27:50;100325.41;;;18.96;33.23
56713;BME280;42589;45.536;9.032;2023-01-25T15:30:51;100329.88;;;18.67;34.14
56713;BME280;42589;45.536;9.032;2023-01-25T15:33:52;100321.09;;;19.01;33.27
56713;BME280;42589;45.536;9.032;2023-01-25T15:37:00;100333.38;;;18.83;33.44
56713;BME280;42589;45.536;9.032;2023-01-25T15:40:01;100311.84;;;18.68;33.51
56713;BME280;42589;45.536;9.032;2023-01-25T15:43:03;100323.75;;;18.73;33.70
56713;BME280;42589;45.536;9.032;2023-01-25T15:46:05;100286.53;;;17.83;34.44
56713;BME280;42589;45.536;9.032;2023-01-25T15:49:25;100313.09;;;18.44;34.84
56713;BME280;42589;45.536;9.032;2023-01-25T15:52:26;100308.19;;;18.32;34.72
56713;BME280;42589;45.536;9.032;2023-01-25T15:55:27;100314.97;;;18.28;34.22
56713;BME280;42589;45.536;9.032;2023-01-25T15:58:33;100311.09;;;18.31;34.62
56713;BME280;42589;45.536;9.032;2023-01-25T16:01:35;100286.28;;;18.14;34.21
56713;BME280;42589;45.536;9.032;2023-01-25T16:04:35;100281.78;;;17.70;35.25
56713;BME280;42589;45.536;9.032;2023-01-25T16:07:37;100296.03;;;17.56;35.73
56713;BME280;42589;45.536;9.032;2023-01-25T16:10:39;100296.66;;;17.73;35.48
56713;BME280;42589;45.536;9.032;2023-01-25T16:13:40;100265.47;;;17.42;35.91
56713;BME280;42589;45.536;9.032;2023-01-25T16:16:44;100297.34;;;16.92;37.53
56713;BME280;42589;45.536;9.032;2023-01-25T16:19:45;100274.59;;;16.88;37.29
56713;BME280;42589;45.536;9.032;2023-01-25T16:22:47;100309.81;;;17.08;37.78
56713;BME280;42589;45.536;9.032;2023-01-25T16:25:47;100304.72;;;17.13;37.68
56713;BME280;42589;45.536;9.032;2023-01-25T16:28:48;100310.84;;;17.07;37.61
56713;BME280;42589;45.536;9.032;2023-01-25T16:31:50;100305.00;;;16.81;38.36
56713;BME280;42589;45.536;9.032;2023-01-25T16:34:51;100291.78;;;16.71;38.66
56713;BME280;42589;45.536;9.032;2023-01-25T16:37:52;100318.38;;;16.66;38.94
56713;BME280;42589;45.536;9.032;2023-01-25T16:40:55;100308.72;;;16.80;39.16
56713;BME280;42589;45.536;9.032;2023-01-25T16:43:56;100302.88;;;16.68;39.18
56713;BME280;42589;45.536;9.032;2023-01-25T16:46:58;100299.16;;;16.54;38.80
56713;BME280;42589;45.536;9.032;2023-01-25T16:49:59;100294.22;;;16.66;39.18
56713;BME280;42589;45.536;9.032;2023-01-25T16:53:00;100300.69;;;16.48;39.64
56713;BME280;42589;45.536;9.032;2023-01-25T16:56:01;100305.69;;;16.52;39.47
56713;BME280;42589;45.536;9.032;2023-01-25T16:59:03;100287.72;;;16.37;39.75
56713;BME280;42589;45.536;9.032;2023-01-25T17:02:04;100286.69;;;16.38;39.63
56713;BME280;42589;45.536;9.032;2023-01-25T17:05:07;100298.69;;;16.19;40.36
56713;BME280;42589;45.536;9.032;2023-01-25T17:08:08;100296.34;;;16.24;40.07
56713;BME280;42589;45.536;9.032;2023-01-25T17:11:09;100262.53;;;15.84;40.35
56713;BME280;42589;45.536;9.032;2023-01-25T17:14:14;100270.34;;;15.94;40.06
56713;BME280;42589;45.536;9.032;2023-01-25T17:17:16;100286.63;;;15.92;40.66
56713;BME280;42589;45.536;9.032;2023-01-25T17:20:17;100290.16;;;15.93;40.50
56713;BME280;42589;45.536;9.032;2023-01-25T17:23:19;100276.41;;;15.88;40.52
56713;BME280;42589;45.536;9.032;2023-01-25T17:26:21;100277.78;;;15.84;41.29